sensor_id;sensor_type;location;lat;lon;timestamp;temperature;humidity
5930;DHT22;2990;48.746;9.236;2023-02-26T00:02:12;-0.80;1.00
5930;DHT22;2990;48.746;9.236;2023-02-26T00:04:37;-0.80;1.00
5930;DHT22;2990;48.746;9.236;2023-02-26T00:07:03;-0.80;1.00
5930;DHT22;2990;48.746;9.236;2023-02-26T00:09:30;-0.80;1.00
5930;DHT22;2990;48.746;9.236;2023-02-26T00:11:57;-0.90;1.00
5930;DHT22;2990;48.746;9.236;2023-02-26T00:14:23;-0.90;99.90
5930;DHT22;2990;48.746;9.236;2023-02-26T00:17:06;-1.00;99.90
5930;DHT22;2990;48.746;9.236;2023-02-26T00:19:33;-1.00;1.00
5930;DHT22;2990;48.746;9.236;2023-02-26T00:21:59;-1.00;1.00
5930;DHT22;2990;48.746;9.236;2023-02-26T00:24:25;-1.00;99.90
5930;DHT22;2990;48.746;9.236;2023-02-26T00:26:50;-1.00;1.00
5930;DHT22;2990;48.746;9.236;2023-02-26T00:29:16;-1.10;1.00
5930;DHT22;2990;48.746;9.236;2023-02-26T00:31:42;-1.10;1.00
5930;DHT22;2990;48.746;9.236;2023-02-26T00:34:11;-1.10;1.00
5930;DHT22;2990;48.746;9.236;2023-02-26T00:36:59;-1.10;1.00
5930;DHT22;2990;48.746;9.236;2023-02-26T00:39:39;-1.10;1.00
5930;DHT22;2990;48.746;9.236;2023-02-26T00:42:07;-1.10;1.00
5930;DHT22;2990;48.746;9.236;2023-02-26T00:44:33;-1.20;1.00
5930;DHT22;2990;48.746;9.236;2023-02-26T00:47:09;-1.20;99.90
5930;DHT22;2990;48.746;9.236;2023-02-26T00:49:46;-1.20;99.90
5930;DHT22;2990;48.746;9.236;2023-02-26T00:52:28;-1.30;99.90
5930;DHT22;2990;48.746;9.236;2023-02-26T00:54:57;-1.30;1.00
5930;DHT22;2990;48.746;9.236;2023-02-26T00:57:22;-1.40;99.90
5930;DHT22;2990;48.746;9.236;2023-02-26T00:59:48;-1.40;1.00
5930;DHT22;2990;48.746;9.236;2023-02-26T01:02:13;-1.40;99.90
5930;DHT22;2990;48.746;9.236;2023-02-26T01:04:39;-1.40;1.00
5930;DHT22;2990;48.746;9.236;2023-02-26T01:07:08;-1.40;8.70
5930;DHT22;2990;48.746;9.236;2023-02-26T01:09:35;-1.30;1.00
5930;DHT22;2990;48.746;9.236;2023-02-26T01:12:05;-1.30;99.90
5930;DHT22;2990;48.746;9.236;2023-02-26T01:14:31;-1.30;1.00
5930;DHT22;2990;48.746;9.236;2023-02-26T01:17:23;-1.30;1.00
5930;DHT22;2990;48.746;9.236;2023-02-26T01:19:53;-1.30;1.00
5930;DHT22;2990;48.746;9.236;2023-02-26T01:22:28;-1.40;1.00
5930;DHT22;2990;48.746;9.236;2023-02-26T01:25:00;-1.50;1.00
5930;DHT22;2990;48.746;9.236;2023-02-26T01:27:26;-1.40;1.00
5930;DHT22;2990;48.746;9.236;2023-02-26T01:29:52;-1.40;99.90
5930;DHT22;2990;48.746;9.236;2023-02-26T01:33:22;-1.50;1.00
5930;DHT22;2990;48.746;9.236;2023-02-26T01:35:31;-1.50;1.00
5930;DHT22;2990;48.746;9.236;2023-02-26T01:43:16;-1.60;1.00
5930;DHT22;2990;48.746;9.236;2023-02-26T01:46:10;-1.60;1.00
5930;DHT22;2990;48.746;9.236;2023-02-26T01:48:56;-1.70;1.00
5930;DHT22;2990;48.746;9.236;2023-02-26T01:51:43;-1.60;1.00
5930;DHT22;2990;48.746;9.236;2023-02-26T01:54:09;-1.90;92.40
5930;DHT22;2990;48.746;9.236;2023-02-26T01:56:35;-1.90;99.90
5930;DHT22;2990;48.746;9.236;2023-02-26T01:59:03;-1.90;1.00
5930;DHT22;2990;48.746;9.236;2023-02-26T02:01:31;-1.90;99.90
5930;DHT22;2990;48.746;9.236;2023-02-26T02:03:58;-1.90;1.00
5930;DHT22;2990;48.746;9.236;2023-02-26T02:06:25;-2.00;99.90
5930;DHT22;2990;48.746;9.236;2023-02-26T02:08:52;-2.00;1.00
5930;DHT22;2990;48.746;9.236;2023-02-26T02:11:17;-1.90;1.00
5930;DHT22;2990;48.746;9.236;2023-02-26T02:16:58;-2.10;1.00
5930;DHT22;2990;48.746;9.236;2023-02-26T02:19:42;-2.20;1.00
5930;DHT22;2990;48.746;9.236;2023-02-26T02:22:45;-2.40;1.00
5930;DHT22;2990;48.746;9.236;2023-02-26T02:25:37;-2.20;1.00
5930;DHT22;2990;48.746;9.236;2023-02-26T02:28:19;-2.20;1.00
5930;DHT22;2990;48.746;9.236;2023-02-26T02:31:12;-2.20;1.00
5930;DHT22;2990;48.746;9.236;2023-02-26T02:34:43;-2.30;1.00
5930;DHT22;2990;48.746;9.236;2023-02-26T02:36:58;-2.30;97.20
5930;DHT22;2990;48.746;9.236;2023-02-26T02:39:32;-2.30;1.00
5930;DHT22;2990;48.746;9.236;2023-02-26T02:42:07;-2.30;1.00
5930;DHT22;2990;48.746;9.236;2023-02-26T02:44:37;-2.30;1.00
5930;DHT22;2990;48.746;9.236;2023-02-26T02:47:05;-2.30;35.40
5930;DHT22;2990;48.746;9.236;2023-02-26T02:49:38;-2.30;1.00
5930;DHT22;2990;48.746;9.236;2023-02-26T02:52:12;-2.30;1.00
5930;DHT22;2990;48.746;9.236;2023-02-26T02:54:43;-2.40;1.00
5930;DHT22;2990;48.746;9.236;2023-02-26T02:57:25;-2.40;1.00
5930;DHT22;2990;48.746;9.236;2023-02-26T02:59:57;-2.40;1.00
5930;DHT22;2990;48.746;9.236;2023-02-26T03:05:29;-2.40;1.00
5930;DHT22;2990;48.746;9.236;2023-02-26T03:08:03;-2.40;1.00
5930;DHT22;2990;48.746;9.236;2023-02-26T03:10:30;-2.30;1.00
5930;DHT22;2990;48.746;9.236;2023-02-26T03:12:56;-2.50;1.00
5930;DHT22;2990;48.746;9.236;2023-02-26T03:21:09;-2.60;99.90
5930;DHT22;2990;48.746;9.236;2023-02-26T03:24:10;-2.50;99.90
5930;DHT22;2990;48.746;9.236;2023-02-26T03:26:41;-2.60;99.90
5930;DHT22;2990;48.746;9.236;2023-02-26T03:29:23;-2.60;99.90
5930;DHT22;2990;48.746;9.236;2023-02-26T03:31:59;-2.60;1.00
5930;DHT22;2990;48.746;9.236;2023-02-26T03:37:03;-2.60;1.00
5930;DHT22;2990;48.746;9.236;2023-02-26T03:39:36;-2.60;1.00
5930;DHT22;2990;48.746;9.236;2023-02-26T03:42:21;-2.40;1.00
5930;DHT22;2990;48.746;9.236;2023-02-26T03:45:05;-2.60;1.00
5930;DHT22;2990;48.746;9.236;2023-02-26T03:47:34;-2.60;1.00
5930;DHT22;2990;48.746;9.236;2023-02-26T03:50:43;-2.60;1.00
5930;DHT22;2990;48.746;9.236;2023-02-26T03:53:10;-2.70;1.00
5930;DHT22;2990;48.746;9.236;2023-02-26T03:55:44;-2.80;1.00
5930;DHT22;2990;48.746;9.236;2023-02-26T03:58:11;-2.80;1.00
5930;DHT22;2990;48.746;9.236;2023-02-26T04:00:38;-2.80;1.00
5930;DHT22;2990;48.746;9.236;2023-02-26T04:06:26;-2.80;1.00
5930;DHT22;2990;48.746;9.236;2023-02-26T04:08:52;-2.80;99.90
5930;DHT22;2990;48.746;9.236;2023-02-26T04:11:19;-2.80;99.90
5930;DHT22;2990;48.746;9.236;2023-02-26T04:13:46;-2.80;99.90
5930;DHT22;2990;48.746;9.236;2023-02-26T04:16:12;-2.80;99.90
5930;DHT22;2990;48.746;9.236;2023-02-26T04:18:38;-2.80;1.00
5930;DHT22;2990;48.746;9.236;2023-02-26T04:21:05;-2.60;1.00
5930;DHT22;2990;48.746;9.236;2023-02-26T04:23:31;-2.90;1.00
5930;DHT22;2990;48.746;9.236;2023-02-26T04:25:57;-2.90;1.00
5930;DHT22;2990;48.746;9.236;2023-02-26T04:28:22;-2.80;1.00
5930;DHT22;2990;48.746;9.236;2023-02-26T04:30:48;-2.90;99.90
5930;DHT22;2990;48.746;9.236;2023-02-26T04:33:14;-3.00;99.90
5930;DHT22;2990;48.746;9.236;2023-02-26T04:35:40;-3.00;1.00
5930;DHT22;2990;48.746;9.236;2023-02-26T04:38:06;-3.00;1.00
5930;DHT22;2990;48.746;9.236;2023-02-26T04:40:32;-3.00;1.00
5930;DHT22;2990;48.746;9.236;2023-02-26T04:42:57;-3.00;1.00
5930;DHT22;2990;48.746;9.236;2023-02-26T04:45:23;-2.40;1.00
5930;DHT22;2990;48.746;9.236;2023-02-26T04:47:49;-3.20;1.00
5930;DHT22;2990;48.746;9.236;2023-02-26T04:50:14;-3.30;1.00
5930;DHT22;2990;48.746;9.236;2023-02-26T04:52:40;-3.30;99.90
5930;DHT22;2990;48.746;9.236;2023-02-26T04:55:06;-3.40;99.90
5930;DHT22;2990;48.746;9.236;2023-02-26T04:57:32;-3.30;99.90
5930;DHT22;2990;48.746;9.236;2023-02-26T04:59:58;-3.20;99.90
5930;DHT22;2990;48.746;9.236;2023-02-26T05:05:45;-3.20;99.90
5930;DHT22;2990;48.746;9.236;2023-02-26T05:08:11;-3.20;99.90
5930;DHT22;2990;48.746;9.236;2023-02-26T05:10:37;-3.30;99.90
5930;DHT22;2990;48.746;9.236;2023-02-26T05:13:02;-3.30;99.90
5930;DHT22;2990;48.746;9.236;2023-02-26T05:15:28;-3.20;99.90
5930;DHT22;2990;48.746;9.236;2023-02-26T05:17:54;-3.20;99.90
5930;DHT22;2990;48.746;9.236;2023-02-26T05:20:20;-2.90;99.90
5930;DHT22;2990;48.746;9.236;2023-02-26T05:22:45;-3.10;99.90
5930;DHT22;2990;48.746;9.236;2023-02-26T05:25:11;-3.20;99.90
5930;DHT22;2990;48.746;9.236;2023-02-26T05:27:38;-3.20;99.90
5930;DHT22;2990;48.746;9.236;2023-02-26T05:30:05;-3.20;99.90
5930;DHT22;2990;48.746;9.236;2023-02-26T05:32:31;-3.20;99.90
5930;DHT22;2990;48.746;9.236;2023-02-26T05:34:56;-3.30;99.90
5930;DHT22;2990;48.746;9.236;2023-02-26T05:37:22;-3.30;99.90
5930;DHT22;2990;48.746;9.236;2023-02-26T05:39:47;-3.30;99.90
5930;DHT22;2990;48.746;9.236;2023-02-26T05:42:13;-3.10;99.90
5930;DHT22;2990;48.746;9.236;2023-02-26T05:44:39;-3.30;1.00
5930;DHT22;2990;48.746;9.236;2023-02-26T05:47:04;-3.00;1.00
5930;DHT22;2990;48.746;9.236;2023-02-26T05:49:30;-3.30;1.00
5930;DHT22;2990;48.746;9.236;2023-02-26T05:51:55;-3.40;1.00
5930;DHT22;2990;48.746;9.236;2023-02-26T05:54:21;-3.40;1.00
5930;DHT22;2990;48.746;9.236;2023-02-26T05:56:47;-3.40;1.00
5930;DHT22;2990;48.746;9.236;2023-02-26T05:59:12;-3.50;1.00
5930;DHT22;2990;48.746;9.236;2023-02-26T06:01:38;-3.30;1.00
5930;DHT22;2990;48.746;9.236;2023-02-26T06:04:04;-3.50;1.00
5930;DHT22;2990;48.746;9.236;2023-02-26T06:06:31;-3.50;1.00
5930;DHT22;2990;48.746;9.236;2023-02-26T06:08:56;-3.40;1.00
5930;DHT22;2990;48.746;9.236;2023-02-26T06:11:22;-3.50;1.00
5930;DHT22;2990;48.746;9.236;2023-02-26T06:13:48;-3.40;1.00
5930;DHT22;2990;48.746;9.236;2023-02-26T06:16:14;-3.40;1.00
5930;DHT22;2990;48.746;9.236;2023-02-26T06:18:40;-3.40;1.00
5930;DHT22;2990;48.746;9.236;2023-02-26T06:21:05;-3.30;1.00
5930;DHT22;2990;48.746;9.236;2023-02-26T06:23:31;-3.50;1.00
5930;DHT22;2990;48.746;9.236;2023-02-26T06:25:56;-3.50;1.00
5930;DHT22;2990;48.746;9.236;2023-02-26T06:28:24;-3.60;1.00
5930;DHT22;2990;48.746;9.236;2023-02-26T06:30:51;-3.50;1.00
5930;DHT22;2990;48.746;9.236;2023-02-26T06:33:17;-3.50;1.00
5930;DHT22;2990;48.746;9.236;2023-02-26T06:35:43;-3.50;1.00
5930;DHT22;2990;48.746;9.236;2023-02-26T06:38:08;-3.30;1.00
5930;DHT22;2990;48.746;9.236;2023-02-26T06:40:34;-3.40;1.00
5930;DHT22;2990;48.746;9.236;2023-02-26T06:42:59;-3.40;1.00
5930;DHT22;2990;48.746;9.236;2023-02-26T06:45:25;-3.30;1.00
5930;DHT22;2990;48.746;9.236;2023-02-26T06:47:51;-3.20;1.00
5930;DHT22;2990;48.746;9.236;2023-02-26T06:50:16;-3.20;1.00
5930;DHT22;2990;48.746;9.236;2023-02-26T06:52:42;-3.20;1.00
5930;DHT22;2990;48.746;9.236;2023-02-26T06:55:08;-3.20;1.00
5930;DHT22;2990;48.746;9.236;2023-02-26T06:57:34;-3.20;1.00
5930;DHT22;2990;48.746;9.236;2023-02-26T07:00:00;-3.00;1.00
5930;DHT22;2990;48.746;9.236;2023-02-26T07:02:25;-3.00;1.00
5930;DHT22;2990;48.746;9.236;2023-02-26T07:04:51;-3.00;1.00
5930;DHT22;2990;48.746;9.236;2023-02-26T07:07:17;-3.10;1.00
5930;DHT22;2990;48.746;9.236;2023-02-26T07:09:43;-3.00;1.00
5930;DHT22;2990;48.746;9.236;2023-02-26T07:12:08;-2.90;1.00
5930;DHT22;2990;48.746;9.236;2023-02-26T07:14:34;-2.90;1.00
5930;DHT22;2990;48.746;9.236;2023-02-26T07:17:01;-2.90;1.00
5930;DHT22;2990;48.746;9.236;2023-02-26T07:19:27;-2.90;99.90
5930;DHT22;2990;48.746;9.236;2023-02-26T07:21:52;-2.80;99.90
5930;DHT22;2990;48.746;9.236;2023-02-26T07:24:20;-2.80;99.90
5930;DHT22;2990;48.746;9.236;2023-02-26T07:26:45;-2.70;99.90
5930;DHT22;2990;48.746;9.236;2023-02-26T07:29:11;-2.60;99.90
5930;DHT22;2990;48.746;9.236;2023-02-26T07:31:37;-2.50;99.90
5930;DHT22;2990;48.746;9.236;2023-02-26T07:34:02;-2.50;99.90
5930;DHT22;2990;48.746;9.236;2023-02-26T07:36:31;-2.30;99.90
5930;DHT22;2990;48.746;9.236;2023-02-26T07:38:56;-2.40;99.90
5930;DHT22;2990;48.746;9.236;2023-02-26T07:41:22;-2.30;40.50
5930;DHT22;2990;48.746;9.236;2023-02-26T07:43:48;-2.30;1.00
5930;DHT22;2990;48.746;9.236;2023-02-26T07:46:14;-2.20;1.00
5930;DHT22;2990;48.746;9.236;2023-02-26T07:55:05;-2.30;1.00
5930;DHT22;2990;48.746;9.236;2023-02-26T07:57:30;-2.30;1.00
5930;DHT22;2990;48.746;9.236;2023-02-26T08:00:19;-2.20;99.90
5930;DHT22;2990;48.746;9.236;2023-02-26T08:02:44;-2.10;1.00
5930;DHT22;2990;48.746;9.236;2023-02-26T08:05:13;-1.70;74.30
5930;DHT22;2990;48.746;9.236;2023-02-26T08:07:56;-1.40;1.00
5930;DHT22;2990;48.746;9.236;2023-02-26T08:10:22;-1.20;1.00
5930;DHT22;2990;48.746;9.236;2023-02-26T08:12:47;-1.10;99.60
5930;DHT22;2990;48.746;9.236;2023-02-26T08:15:13;-1.20;1.00
5930;DHT22;2990;48.746;9.236;2023-02-26T08:17:55;-1.10;99.90
5930;DHT22;2990;48.746;9.236;2023-02-26T08:20:23;-1.10;99.90
5930;DHT22;2990;48.746;9.236;2023-02-26T08:22:50;-0.90;99.90
5930;DHT22;2990;48.746;9.236;2023-02-26T08:25:15;-1.00;1.00
5930;DHT22;2990;48.746;9.236;2023-02-26T08:27:41;-1.10;1.00
5930;DHT22;2990;48.746;9.236;2023-02-26T08:30:08;-1.20;1.00
5930;DHT22;2990;48.746;9.236;2023-02-26T08:32:34;-1.20;55.60
5930;DHT22;2990;48.746;9.236;2023-02-26T08:34:59;-1.20;99.90
5930;DHT22;2990;48.746;9.236;2023-02-26T08:37:28;-1.20;99.90
5930;DHT22;2990;48.746;9.236;2023-02-26T08:39:56;-1.20;99.90
5930;DHT22;2990;48.746;9.236;2023-02-26T08:42:22;-1.10;1.00
5930;DHT22;2990;48.746;9.236;2023-02-26T08:44:47;-1.00;99.90
5930;DHT22;2990;48.746;9.236;2023-02-26T08:47:14;-1.20;99.90
5930;DHT22;2990;48.746;9.236;2023-02-26T08:49:39;-1.10;1.00
5930;DHT22;2990;48.746;9.236;2023-02-26T08:52:05;-1.20;99.90
5930;DHT22;2990;48.746;9.236;2023-02-26T08:54:31;-1.20;99.90
5930;DHT22;2990;48.746;9.236;2023-02-26T08:57:04;-1.40;85.60
5930;DHT22;2990;48.746;9.236;2023-02-26T08:59:29;-1.40;81.90
5930;DHT22;2990;48.746;9.236;2023-02-26T09:01:55;-1.50;1.00
5930;DHT22;2990;48.746;9.236;2023-02-26T09:04:21;-1.60;59.70
5930;DHT22;2990;48.746;9.236;2023-02-26T09:06:46;-1.60;1.00
5930;DHT22;2990;48.746;9.236;2023-02-26T09:09:12;-1.60;1.00
5930;DHT22;2990;48.746;9.236;2023-02-26T09:11:38;-1.40;1.00
5930;DHT22;2990;48.746;9.236;2023-02-26T09:14:04;-1.50;99.90
5930;DHT22;2990;48.746;9.236;2023-02-26T09:16:30;-1.60;1.00
5930;DHT22;2990;48.746;9.236;2023-02-26T09:18:56;-1.60;1.00
5930;DHT22;2990;48.746;9.236;2023-02-26T09:21:22;-1.70;99.90
5930;DHT22;2990;48.746;9.236;2023-02-26T09:23:48;-1.60;1.00
5930;DHT22;2990;48.746;9.236;2023-02-26T09:26:14;-1.70;72.20
5930;DHT22;2990;48.746;9.236;2023-02-26T09:28:39;-1.50;1.00
5930;DHT22;2990;48.746;9.236;2023-02-26T09:31:06;-1.40;1.00
5930;DHT22;2990;48.746;9.236;2023-02-26T09:33:32;-1.50;1.00
5930;DHT22;2990;48.746;9.236;2023-02-26T09:35:58;-1.40;99.90
5930;DHT22;2990;48.746;9.236;2023-02-26T09:38:24;-1.40;99.90
5930;DHT22;2990;48.746;9.236;2023-02-26T09:40:55;-1.40;1.00
5930;DHT22;2990;48.746;9.236;2023-02-26T09:46:20;-1.40;1.00
5930;DHT22;2990;48.746;9.236;2023-02-26T09:49:03;-1.30;1.00
5930;DHT22;2990;48.746;9.236;2023-02-26T09:51:30;-1.30;99.90
5930;DHT22;2990;48.746;9.236;2023-02-26T09:53:58;-1.20;1.00
5930;DHT22;2990;48.746;9.236;2023-02-26T09:56:32;-1.10;64.30
5930;DHT22;2990;48.746;9.236;2023-02-26T09:59:01;-1.10;99.90
5930;DHT22;2990;48.746;9.236;2023-02-26T10:01:45;-1.20;1.00
5930;DHT22;2990;48.746;9.236;2023-02-26T10:10:34;-1.10;99.90
5930;DHT22;2990;48.746;9.236;2023-02-26T10:15:46;-1.20;1.00
5930;DHT22;2990;48.746;9.236;2023-02-26T10:18:20;-1.20;99.90
5930;DHT22;2990;48.746;9.236;2023-02-26T10:21:01;-1.00;99.90
5930;DHT22;2990;48.746;9.236;2023-02-26T10:23:40;-1.30;1.00
5930;DHT22;2990;48.746;9.236;2023-02-26T10:26:17;-1.30;1.00
5930;DHT22;2990;48.746;9.236;2023-02-26T10:43:01;-1.30;99.90
5930;DHT22;2990;48.746;9.236;2023-02-26T10:50:45;-1.30;99.90
5930;DHT22;2990;48.746;9.236;2023-02-26T10:53:13;-1.20;1.00
5930;DHT22;2990;48.746;9.236;2023-02-26T10:55:44;-1.00;1.00
5930;DHT22;2990;48.746;9.236;2023-02-26T10:58:16;-1.10;1.00
5930;DHT22;2990;48.746;9.236;2023-02-26T11:00:45;-1.00;1.00
5930;DHT22;2990;48.746;9.236;2023-02-26T11:03:20;-0.90;99.90
5930;DHT22;2990;48.746;9.236;2023-02-26T11:05:46;-0.80;99.90
5930;DHT22;2990;48.746;9.236;2023-02-26T11:08:24;-0.70;99.90
5930;DHT22;2990;48.746;9.236;2023-02-26T11:11:03;-0.60;1.00
5930;DHT22;2990;48.746;9.236;2023-02-26T11:13:35;-0.50;99.90
5930;DHT22;2990;48.746;9.236;2023-02-26T11:16:10;-0.40;69.90
5930;DHT22;2990;48.746;9.236;2023-02-26T11:18:41;-0.40;1.00
5930;DHT22;2990;48.746;9.236;2023-02-26T11:21:15;-0.30;1.00
5930;DHT22;2990;48.746;9.236;2023-02-26T11:23:42;-0.20;1.00
5930;DHT22;2990;48.746;9.236;2023-02-26T11:26:17;-0.20;1.00
5930;DHT22;2990;48.746;9.236;2023-02-26T11:28:45;-0.10;99.90
5930;DHT22;2990;48.746;9.236;2023-02-26T11:31:16;-0.20;1.00
5930;DHT22;2990;48.746;9.236;2023-02-26T11:34:01;-0.30;1.00
5930;DHT22;2990;48.746;9.236;2023-02-26T11:36:28;-0.40;1.00
5930;DHT22;2990;48.746;9.236;2023-02-26T11:39:04;-0.40;1.00
5930;DHT22;2990;48.746;9.236;2023-02-26T11:41:36;-0.40;1.00
5930;DHT22;2990;48.746;9.236;2023-02-26T11:44:18;-0.30;1.00
5930;DHT22;2990;48.746;9.236;2023-02-26T11:46:52;-0.20;99.90
5930;DHT22;2990;48.746;9.236;2023-02-26T11:49:22;-0.10;99.90
5930;DHT22;2990;48.746;9.236;2023-02-26T11:52:05;0.10;1.00
5930;DHT22;2990;48.746;9.236;2023-02-26T11:54:40;-0.10;1.00
5930;DHT22;2990;48.746;9.236;2023-02-26T11:57:14;-0.20;1.00
5930;DHT22;2990;48.746;9.236;2023-02-26T11:59:43;-0.20;99.90
5930;DHT22;2990;48.746;9.236;2023-02-26T12:02:13;-0.10;99.90
5930;DHT22;2990;48.746;9.236;2023-02-26T12:04:45;0.00;1.00
5930;DHT22;2990;48.746;9.236;2023-02-26T12:07:15;-0.10;99.90
5930;DHT22;2990;48.746;9.236;2023-02-26T12:09:43;-0.10;99.90
5930;DHT22;2990;48.746;9.236;2023-02-26T12:12:32;-0.10;1.00
5930;DHT22;2990;48.746;9.236;2023-02-26T12:15:20;-0.20;99.90
5930;DHT22;2990;48.746;9.236;2023-02-26T12:18:11;-0.10;1.00
5930;DHT22;2990;48.746;9.236;2023-02-26T12:26:27;-0.30;99.90
5930;DHT22;2990;48.746;9.236;2023-02-26T12:51:23;-0.10;99.90
5930;DHT22;2990;48.746;9.236;2023-02-26T12:57:16;0.10;99.90
5930;DHT22;2990;48.746;9.236;2023-02-26T13:03:23;0.30;99.90
5930;DHT22;2990;48.746;9.236;2023-02-26T13:14:27;0.20;1.00
5930;DHT22;2990;48.746;9.236;2023-02-26T13:19:43;0.20;1.00
5930;DHT22;2990;48.746;9.236;2023-02-26T13:22:43;0.20;1.00
5930;DHT22;2990;48.746;9.236;2023-02-26T13:27:56;0.20;99.90
5930;DHT22;2990;48.746;9.236;2023-02-26T13:30:30;0.10;62.00
5930;DHT22;2990;48.746;9.236;2023-02-26T13:32:58;0.10;1.00
5930;DHT22;2990;48.746;9.236;2023-02-26T13:35:34;0.10;1.00
5930;DHT22;2990;48.746;9.236;2023-02-26T13:44:48;0.20;99.90
5930;DHT22;2990;48.746;9.236;2023-02-26T13:47:41;0.30;99.90
5930;DHT22;2990;48.746;9.236;2023-02-26T13:55:51;0.90;1.00
5930;DHT22;2990;48.746;9.236;2023-02-26T14:09:05;1.20;1.00
5930;DHT22;2990;48.746;9.236;2023-02-26T14:14:28;0.90;1.00
5930;DHT22;2990;48.746;9.236;2023-02-26T14:25:52;0.60;1.00
5930;DHT22;2990;48.746;9.236;2023-02-26T14:28:31;0.60;1.00
5930;DHT22;2990;48.746;9.236;2023-02-26T14:34:53;0.80;1.00
5930;DHT22;2990;48.746;9.236;2023-02-26T14:37:23;1.00;1.00
5930;DHT22;2990;48.746;9.236;2023-02-26T14:40:11;1.10;1.00
5930;DHT22;2990;48.746;9.236;2023-02-26T14:42:44;1.30;1.00
5930;DHT22;2990;48.746;9.236;2023-02-26T14:45:29;1.30;99.90
5930;DHT22;2990;48.746;9.236;2023-02-26T14:47:57;1.50;99.90
5930;DHT22;2990;48.746;9.236;2023-02-26T14:50:25;1.50;1.00
5930;DHT22;2990;48.746;9.236;2023-02-26T15:01:13;1.20;99.90
5930;DHT22;2990;48.746;9.236;2023-02-26T15:25:42;0.80;1.00
5930;DHT22;2990;48.746;9.236;2023-02-26T15:30:49;0.50;1.00
5930;DHT22;2990;48.746;9.236;2023-02-26T15:33:18;0.40;1.00
5930;DHT22;2990;48.746;9.236;2023-02-26T15:35:50;0.40;1.00
5930;DHT22;2990;48.746;9.236;2023-02-26T15:38:17;0.40;1.00
5930;DHT22;2990;48.746;9.236;2023-02-26T15:40:55;0.50;1.00
5930;DHT22;2990;48.746;9.236;2023-02-26T15:43:28;0.60;1.00
5930;DHT22;2990;48.746;9.236;2023-02-26T15:46:08;0.60;1.00
5930;DHT22;2990;48.746;9.236;2023-02-26T15:48:39;0.60;1.00
5930;DHT22;2990;48.746;9.236;2023-02-26T15:51:20;0.60;1.00
5930;DHT22;2990;48.746;9.236;2023-02-26T16:01:00;0.40;99.90
5930;DHT22;2990;48.746;9.236;2023-02-26T16:03:29;0.60;1.00
5930;DHT22;2990;48.746;9.236;2023-02-26T16:06:01;0.40;99.90
5930;DHT22;2990;48.746;9.236;2023-02-26T16:08:33;0.50;99.90
5930;DHT22;2990;48.746;9.236;2023-02-26T16:11:07;0.40;99.90
5930;DHT22;2990;48.746;9.236;2023-02-26T16:14:19;0.30;99.90
5930;DHT22;2990;48.746;9.236;2023-02-26T16:17:14;0.30;99.90
5930;DHT22;2990;48.746;9.236;2023-02-26T16:23:02;0.20;99.90
5930;DHT22;2990;48.746;9.236;2023-02-26T16:26:00;0.10;99.90
5930;DHT22;2990;48.746;9.236;2023-02-26T16:28:45;0.00;99.90
5930;DHT22;2990;48.746;9.236;2023-02-26T16:34:48;0.00;99.90
5930;DHT22;2990;48.746;9.236;2023-02-26T16:37:34;0.00;99.90
5930;DHT22;2990;48.746;9.236;2023-02-26T16:40:26;0.00;99.90
5930;DHT22;2990;48.746;9.236;2023-02-26T16:46:05;-0.10;99.90
5930;DHT22;2990;48.746;9.236;2023-02-26T16:51:11;0.00;99.90
5930;DHT22;2990;48.746;9.236;2023-02-26T16:54:05;0.10;99.90
5930;DHT22;2990;48.746;9.236;2023-02-26T16:56:37;-0.10;99.90
5930;DHT22;2990;48.746;9.236;2023-02-26T16:59:13;-0.10;99.90
5930;DHT22;2990;48.746;9.236;2023-02-26T17:02:03;-0.20;99.90
5930;DHT22;2990;48.746;9.236;2023-02-26T17:04:37;-0.20;99.90
5930;DHT22;2990;48.746;9.236;2023-02-26T17:07:45;-0.20;99.90
5930;DHT22;2990;48.746;9.236;2023-02-26T17:10:28;-0.20;99.90
5930;DHT22;2990;48.746;9.236;2023-02-26T17:13:09;-0.20;99.90
5930;DHT22;2990;48.746;9.236;2023-02-26T17:15:38;-0.30;99.90
5930;DHT22;2990;48.746;9.236;2023-02-26T17:18:05;-0.30;99.90
5930;DHT22;2990;48.746;9.236;2023-02-26T17:20:31;-0.20;99.90
5930;DHT22;2990;48.746;9.236;2023-02-26T17:33:27;-0.40;99.90
5930;DHT22;2990;48.746;9.236;2023-02-26T17:49:11;-0.50;99.90
5930;DHT22;2990;48.746;9.236;2023-02-26T17:51:42;-0.60;99.90
5930;DHT22;2990;48.746;9.236;2023-02-26T17:54:14;-0.60;99.90
5930;DHT22;2990;48.746;9.236;2023-02-26T17:56:40;-0.60;99.90
5930;DHT22;2990;48.746;9.236;2023-02-26T18:02:29;-0.70;99.90
5930;DHT22;2990;48.746;9.236;2023-02-26T18:08:23;-0.80;99.90
5930;DHT22;2990;48.746;9.236;2023-02-26T18:10:53;-0.90;99.90
5930;DHT22;2990;48.746;9.236;2023-02-26T18:13:22;-0.70;99.90
5930;DHT22;2990;48.746;9.236;2023-02-26T18:15:51;-0.90;99.90
5930;DHT22;2990;48.746;9.236;2023-02-26T18:18:24;-0.90;99.90
5930;DHT22;2990;48.746;9.236;2023-02-26T18:20:58;-0.90;99.90
5930;DHT22;2990;48.746;9.236;2023-02-26T18:27:05;-1.00;99.90
5930;DHT22;2990;48.746;9.236;2023-02-26T18:29:31;-1.00;99.90
5930;DHT22;2990;48.746;9.236;2023-02-26T18:31:57;-1.00;99.90
5930;DHT22;2990;48.746;9.236;2023-02-26T18:34:25;-1.00;99.90
5930;DHT22;2990;48.746;9.236;2023-02-26T18:36:51;-0.90;99.90
5930;DHT22;2990;48.746;9.236;2023-02-26T18:39:17;-1.00;99.90
5930;DHT22;2990;48.746;9.236;2023-02-26T18:41:45;-1.10;99.90
5930;DHT22;2990;48.746;9.236;2023-02-26T18:44:11;-1.00;99.90
5930;DHT22;2990;48.746;9.236;2023-02-26T18:46:40;-1.00;99.90
5930;DHT22;2990;48.746;9.236;2023-02-26T18:49:15;-1.00;99.90
5930;DHT22;2990;48.746;9.236;2023-02-26T18:51:44;-1.00;99.90
5930;DHT22;2990;48.746;9.236;2023-02-26T18:54:11;-1.00;99.90
5930;DHT22;2990;48.746;9.236;2023-02-26T18:56:42;-1.20;99.90
5930;DHT22;2990;48.746;9.236;2023-02-26T18:59:07;-1.10;99.90
5930;DHT22;2990;48.746;9.236;2023-02-26T19:01:33;-1.20;99.90
5930;DHT22;2990;48.746;9.236;2023-02-26T19:03:59;-1.20;1.00
5930;DHT22;2990;48.746;9.236;2023-02-26T19:06:24;-1.20;1.00
5930;DHT22;2990;48.746;9.236;2023-02-26T19:08:52;-1.20;1.00
5930;DHT22;2990;48.746;9.236;2023-02-26T19:11:21;-1.20;1.00
5930;DHT22;2990;48.746;9.236;2023-02-26T19:13:48;-1.20;1.00
5930;DHT22;2990;48.746;9.236;2023-02-26T19:16:14;-1.20;1.00
5930;DHT22;2990;48.746;9.236;2023-02-26T19:22:00;-1.30;1.00
5930;DHT22;2990;48.746;9.236;2023-02-26T19:31:00;-1.50;1.00
5930;DHT22;2990;48.746;9.236;2023-02-26T19:33:34;-1.40;1.00
5930;DHT22;2990;48.746;9.236;2023-02-26T19:36:05;-1.50;1.00
5930;DHT22;2990;48.746;9.236;2023-02-26T19:41:25;-1.50;1.00
5930;DHT22;2990;48.746;9.236;2023-02-26T19:43:56;-1.50;1.00
5930;DHT22;2990;48.746;9.236;2023-02-26T19:52:14;-1.40;1.00
5930;DHT22;2990;48.746;9.236;2023-02-26T19:54:40;-1.40;1.00
5930;DHT22;2990;48.746;9.236;2023-02-26T19:57:05;-1.40;1.00
5930;DHT22;2990;48.746;9.236;2023-02-26T19:59:31;-1.40;1.00
5930;DHT22;2990;48.746;9.236;2023-02-26T20:01:57;-1.40;1.00
5930;DHT22;2990;48.746;9.236;2023-02-26T20:04:57;-1.40;1.00
5930;DHT22;2990;48.746;9.236;2023-02-26T20:07:23;-1.40;1.00
5930;DHT22;2990;48.746;9.236;2023-02-26T20:09:51;-1.40;1.00
5930;DHT22;2990;48.746;9.236;2023-02-26T20:12:19;-1.50;1.00
5930;DHT22;2990;48.746;9.236;2023-02-26T20:14:45;-1.30;1.00
5930;DHT22;2990;48.746;9.236;2023-02-26T20:17:11;-1.40;1.00
5930;DHT22;2990;48.746;9.236;2023-02-26T20:19:42;-1.40;1.00
5930;DHT22;2990;48.746;9.236;2023-02-26T20:22:09;-1.50;1.00
5930;DHT22;2990;48.746;9.236;2023-02-26T20:24:36;-1.50;1.00
5930;DHT22;2990;48.746;9.236;2023-02-26T20:27:07;-1.60;1.00
5930;DHT22;2990;48.746;9.236;2023-02-26T20:29:36;-1.60;1.00
5930;DHT22;2990;48.746;9.236;2023-02-26T20:32:02;-1.40;1.00
5930;DHT22;2990;48.746;9.236;2023-02-26T20:37:47;-1.80;1.00
5930;DHT22;2990;48.746;9.236;2023-02-26T20:40:13;-1.80;1.00
5930;DHT22;2990;48.746;9.236;2023-02-26T20:42:41;-1.70;1.00
5930;DHT22;2990;48.746;9.236;2023-02-26T20:45:07;-1.70;1.00
5930;DHT22;2990;48.746;9.236;2023-02-26T20:47:38;-1.90;1.00
5930;DHT22;2990;48.746;9.236;2023-02-26T20:50:21;-1.90;1.00
5930;DHT22;2990;48.746;9.236;2023-02-26T20:52:47;-1.90;1.00
5930;DHT22;2990;48.746;9.236;2023-02-26T20:55:13;-1.60;1.00
5930;DHT22;2990;48.746;9.236;2023-02-26T21:03:41;-2.00;1.00